Time;durP1;ratioP1;P1;durP2;ratioP2;P2;SDS_P1;SDS_P2;PMS_P1;PMS_P2;Temp;Humidity;BMP_temperature;BMP_pressure;BME280_temperature;BME280_humidity;BME280_pressure;Samples;Min_cycle;Max_cycle;Signal;HPM_P1;HPM_P2
2021/10/04 00:01:42;;;;;;;0.00;0.00;;;;;;;;;;10446759;28;20051;-66
2021/10/04 00:06:45;;;;;;;0.00;0.00;;;;;;;;;;10447864;28;20132;-66
2021/10/04 00:11:49;;;;;;;0.00;0.00;;;;;;;;;;10447078;28;20139;-67
2021/10/04 00:16:53;;;;;;;0.00;0.00;;;;;;;;;;10439821;28;20376;-64
2021/10/04 00:21:56;;;;;;;0.00;0.00;;;;;;;;;;10437544;28;20060;-64
2021/10/04 00:27:00;;;;;;;0.00;0.00;;;;;;;;;;10441276;28;20590;-63
2021/10/04 00:32:04;;;;;;;0.00;0.00;;;;;;;;;;10436345;28;20148;-64
2021/10/04 00:37:06;;;;;;;0.00;0.00;;;;;;;;;;10438528;28;20052;-64
2021/10/04 00:42:11;;;;;;;0.00;0.00;;;;;;;;;;10436178;28;20037;-65
2021/10/04 00:47:14;;;;;;;0.00;0.00;;;;;;;;;;10437286;28;20047;-65
2021/10/04 00:52:16;;;;;;;0.10;0.00;;;;;;;;;;10441774;28;20040;-64
2021/10/04 00:57:21;;;;;;;0.00;0.00;;;;;;;;;;10435601;28;20041;-65
2021/10/04 01:02:25;;;;;;;0.00;0.00;;;;;;;;;;10436250;28;20495;-64
2021/10/04 01:07:28;;;;;;;0.00;0.00;;;;;;;;;;10439796;28;20049;-65
2021/10/04 01:12:32;;;;;;;0.00;0.00;;;;;;;;;;10448190;28;20060;-65
2021/10/04 01:17:35;;;;;;;0.30;0.00;;;;;;;;;;10446578;28;20049;-65
2021/10/04 01:22:39;;;;;;;0.00;0.00;;;;;;;;;;10439240;28;20052;-64
2021/10/04 01:27:42;;;;;;;0.03;0.03;;;;;;;;;;10431485;28;20528;-65
2021/10/04 01:32:46;;;;;;;0.00;0.00;;;;;;;;;;10433870;28;20124;-65
2021/10/04 01:37:51;;;;;;;0.00;0.00;;;;;;;;;;10434426;28;20056;-66
2021/10/04 01:48:40;;;;;;;0.00;0.00;;;;;;;;;;10429117;28;20048;-65
2021/10/04 01:53:45;;;;;;;0.00;0.00;;;;;;;;;;10433781;28;20498;-65
2021/10/04 01:58:48;;;;;;;0.00;0.00;;;;;;;;;;10435434;28;20033;-65
2021/10/04 02:03:56;;;;;;;0.00;0.00;;;;;;;;;;10430720;28;20048;-64
2021/10/04 02:09:00;;;;;;;0.00;0.00;;;;;;;;;;10433769;28;20061;-64
2021/10/04 02:14:03;;;;;;;0.00;0.00;;;;;;;;;;10436434;28;20525;-65
2021/10/04 02:19:06;;;;;;;0.00;0.00;;;;;;;;;;10432194;28;20055;-65
2021/10/04 02:24:12;;;;;;;0.00;0.00;;;;;;;;;;10434637;28;20043;-65
2021/10/04 02:29:15;;;;;;;0.00;0.00;;;;;;;;;;10430544;28;20079;-64
2021/10/04 02:34:19;;;;;;;0.00;0.00;;;;;;;;;;10433621;28;20738;-64
2021/10/04 02:39:24;;;;;;;0.00;0.00;;;;;;;;;;10438120;28;20049;-64
2021/10/04 02:44:26;;;;;;;0.00;0.00;;;;;;;;;;10445705;28;20827;-65
2021/10/04 02:49:30;;;;;;;0.00;0.00;;;;;;;;;;10444228;28;20044;-65
2021/10/04 02:54:34;;;;;;;0.00;0.00;;;;;;;;;;10441226;28;20057;-64
2021/10/04 02:59:36;;;;;;;0.00;0.00;;;;;;;;;;10449691;28;20195;-64
2021/10/04 03:04:39;;;;;;;0.00;0.00;;;;;;;;;;10444990;28;20129;-64
2021/10/04 03:09:44;;;;;;;0.00;0.00;;;;;;;;;;10442250;28;20503;-64
2021/10/04 03:14:48;;;;;;;0.00;0.00;;;;;;;;;;10438958;28;20119;-64
2021/10/04 03:19:51;;;;;;;0.00;0.00;;;;;;;;;;10440534;28;20041;-65
2021/10/04 03:24:55;;;;;;;0.00;0.00;;;;;;;;;;10439404;28;20086;-64
2021/10/04 03:29:58;;;;;;;0.00;0.00;;;;;;;;;;10439941;28;20033;-64
2021/10/04 03:35:01;;;;;;;0.00;0.00;;;;;;;;;;10444960;28;20033;-64
2021/10/04 03:40:06;;;;;;;0.00;0.00;;;;;;;;;;10437785;28;20047;-64
2021/10/04 03:45:09;;;;;;;0.00;0.00;;;;;;;;;;10440145;28;20060;-64
2021/10/04 03:50:13;;;;;;;0.00;0.00;;;;;;;;;;10439912;28;20479;-65
2021/10/04 03:55:18;;;;;;;0.00;0.00;;;;;;;;;;10444443;28;20411;-64
2021/10/04 04:00:23;;;;;;;0.00;0.00;;;;;;;;;;10439472;28;20402;-64
2021/10/04 04:05:26;;;;;;;0.00;0.00;;;;;;;;;;10438130;28;20035;-65
2021/10/04 04:10:30;;;;;;;0.00;0.00;;;;;;;;;;10439569;28;20190;-65
2021/10/04 04:15:34;;;;;;;0.00;0.00;;;;;;;;;;10439553;28;20045;-64
2021/10/04 04:20:37;;;;;;;0.00;0.00;;;;;;;;;;10440657;28;20041;-64
2021/10/04 04:25:41;;;;;;;0.00;0.00;;;;;;;;;;10440690;28;20047;-64
2021/10/04 04:30:44;;;;;;;0.00;0.00;;;;;;;;;;10437530;28;20048;-65
2021/10/04 04:35:48;;;;;;;0.00;0.00;;;;;;;;;;10441392;28;20513;-65
2021/10/04 04:40:52;;;;;;;0.08;0.03;;;;;;;;;;10438191;28;20057;-65
2021/10/04 04:45:55;;;;;;;0.00;0.00;;;;;;;;;;10437513;28;20063;-65
2021/10/04 04:50:58;;;;;;;0.00;0.00;;;;;;;;;;10442569;28;20127;-65
2021/10/04 04:56:02;;;;;;;0.00;0.00;;;;;;;;;;10448718;28;20036;-64
2021/10/04 05:01:05;;;;;;;0.00;0.00;;;;;;;;;;10449732;28;20048;-64
2021/10/04 05:06:08;;;;;;;0.00;0.00;;;;;;;;;;10451621;28;20061;-64
2021/10/04 05:11:36;;;;;;;0.00;0.00;;;;;;;;;;10445392;28;20055;-64
2021/10/04 05:16:40;;;;;;;0.05;0.05;;;;;;;;;;10447063;28;20048;-64
2021/10/04 05:21:43;;;;;;;0.00;0.00;;;;;;;;;;10444871;28;20041;-64
2021/10/04 05:26:45;;;;;;;0.00;0.00;;;;;;;;;;10446107;28;20511;-64
2021/10/04 05:31:50;;;;;;;0.00;0.00;;;;;;;;;;10442807;28;20041;-64
2021/10/04 05:36:52;;;;;;;0.00;0.00;;;;;;;;;;10445940;28;20045;-64
2021/10/04 05:41:56;;;;;;;0.00;0.00;;;;;;;;;;10443549;28;20398;-65
2021/10/04 05:47:00;;;;;;;0.00;0.00;;;;;;;;;;10441629;28;20632;-65
2021/10/04 05:52:03;;;;;;;0.00;0.00;;;;;;;;;;10436324;28;20060;-65
2021/10/04 05:57:06;;;;;;;0.10;0.10;;;;;;;;;;10443621;28;20053;-64
2021/10/04 06:02:10;;;;;;;0.00;0.00;;;;;;;;;;10438367;28;20053;-64
2021/10/04 06:07:14;;;;;;;0.00;0.00;;;;;;;;;;10438868;28;20061;-64
2021/10/04 06:12:16;;;;;;;0.28;0.10;;;;;;;;;;10434324;28;20490;-64
2021/10/04 06:17:20;;;;;;;0.00;0.00;;;;;;;;;;10436949;28;20809;-64
2021/10/04 06:22:23;;;;;;;0.00;0.00;;;;;;;;;;10436037;28;20041;-64
2021/10/04 06:27:26;;;;;;;0.00;0.00;;;;;;;;;;10441911;28;20036;-64
2021/10/04 06:32:30;;;;;;;0.00;0.00;;;;;;;;;;10438792;28;20036;-64
2021/10/04 06:37:33;;;;;;;0.00;0.00;;;;;;;;;;10441569;28;20456;-64
2021/10/04 06:42:36;;;;;;;0.00;0.00;;;;;;;;;;10439433;28;20039;-66
2021/10/04 06:47:40;;;;;;;0.10;0.10;;;;;;;;;;10436875;28;20041;-65
2021/10/04 06:52:43;;;;;;;0.00;0.00;;;;;;;;;;10429778;28;20427;-65
2021/10/04 06:57:46;;;;;;;0.00;0.00;;;;;;;;;;10427708;28;20121;-65
2021/10/04 07:02:57;;;;;;;0.00;0.00;;;;;;;;;;10438740;28;20037;-65
2021/10/04 07:08:01;;;;;;;0.00;0.00;;;;;;;;;;10439220;28;20782;-64
2021/10/04 07:13:05;;;;;;;0.00;0.00;;;;;;;;;;10436727;28;20132;-64
2021/10/04 07:18:10;;;;;;;0.00;0.00;;;;;;;;;;10437468;28;20051;-65
2021/10/04 07:23:13;;;;;;;0.00;0.00;;;;;;;;;;10438203;28;20049;-65
2021/10/04 07:28:15;;;;;;;0.00;0.00;;;;;;;;;;10440831;28;20072;-64
2021/10/04 07:33:20;;;;;;;0.10;0.10;;;;;;;;;;10437747;28;20136;-64
2021/10/04 07:38:22;;;;;;;0.00;0.00;;;;;;;;;;10442933;28;20067;-63
2021/10/04 07:43:27;;;;;;;0.00;0.00;;;;;;;;;;10442178;28;20045;-64
2021/10/04 07:48:31;;;;;;;0.00;0.00;;;;;;;;;;10442450;28;20037;-64
2021/10/04 07:53:36;;;;;;;0.00;0.00;;;;;;;;;;10443207;28;20156;-64
2021/10/04 07:58:39;;;;;;;0.10;0.10;;;;;;;;;;10443490;28;20490;-64
2021/10/04 08:03:44;;;;;;;0.00;0.00;;;;;;;;;;10447653;28;20060;-65
2021/10/04 08:08:46;;;;;;;0.00;0.00;;;;;;;;;;10444996;28;20053;-65
2021/10/04 08:13:50;;;;;;;0.10;0.10;;;;;;;;;;10444057;28;20053;-65
2021/10/04 08:18:54;;;;;;;0.00;0.00;;;;;;;;;;10442539;28;20155;-64
2021/10/04 08:23:59;;;;;;;0.00;0.00;;;;;;;;;;10441015;28;20278;-64
2021/10/04 08:29:33;;;;;;;0.10;0.08;;;;;;;;;;10445663;28;20048;-64
2021/10/04 08:34:37;;;;;;;0.08;0.08;;;;;;;;;;10444519;28;20045;-64
2021/10/04 08:39:39;;;;;;;0.00;0.00;;;;;;;;;;10443297;28;20047;-64
2021/10/04 08:44:42;;;;;;;0.08;0.08;;;;;;;;;;10445579;28;20040;-65
2021/10/04 08:49:46;;;;;;;0.00;0.00;;;;;;;;;;10440502;28;20123;-64
2021/10/04 08:54:49;;;;;;;0.10;0.10;;;;;;;;;;10443523;28;20045;-64
2021/10/04 08:59:52;;;;;;;0.00;0.00;;;;;;;;;;10445349;28;20047;-64
2021/10/04 09:05:09;;;;;;;0.00;0.00;;;;;;;;;;10445956;28;20059;-65
2021/10/04 09:10:14;;;;;;;0.00;0.00;;;;;;;;;;10440276;28;20103;-65
2021/10/04 09:15:24;;;;;;;0.00;0.00;;;;;;;;;;10440694;28;20048;-64
2021/10/04 09:20:46;;;;;;;0.10;0.10;;;;;;;;;;10437892;28;20047;-65
2021/10/04 09:25:48;;;;;;;0.10;0.10;;;;;;;;;;10439613;28;20040;-65
2021/10/04 09:30:54;;;;;;;0.10;0.10;;;;;;;;;;10438945;28;20043;-64
2021/10/04 09:35:58;;;;;;;0.05;0.05;;;;;;;;;;10440094;28;20467;-64
2021/10/04 09:41:03;;;;;;;0.10;0.10;;;;;;;;;;10438379;28;20802;-64
2021/10/04 09:46:07;;;;;;;0.00;0.00;;;;;;;;;;10439494;28;20111;-65
2021/10/04 09:51:15;;;;;;;0.55;0.10;;;;;;;;;;10437383;28;20047;-64
2021/10/04 09:56:25;;;;;;;0.10;0.10;;;;;;;;;;10437186;28;20494;-64
2021/10/04 10:01:28;;;;;;;0.10;0.10;;;;;;;;;;10438539;28;20037;-64
2021/10/04 10:06:34;;;;;;;0.10;0.10;;;;;;;;;;10436499;28;20045;-64
2021/10/04 10:11:37;;;;;;;0.10;0.10;;;;;;;;;;10438808;28;20059;-64
2021/10/04 10:16:41;;;;;;;0.10;0.10;;;;;;;;;;10436832;28;20041;-64
2021/10/04 10:21:45;;;;;;;0.10;0.10;;;;;;;;;;10435020;28;20051;-67
2021/10/04 10:26:48;;;;;;;0.30;0.10;;;;;;;;;;10437382;28;20443;-67
2021/10/04 10:32:09;;;;;;;0.00;0.00;;;;;;;;;;10432817;28;20044;-66
2021/10/04 10:37:13;;;;;;;0.10;0.10;;;;;;;;;;10438525;28;20053;-65
2021/10/04 10:42:17;;;;;;;0.10;0.10;;;;;;;;;;10436638;28;20063;-64
2021/10/04 10:47:39;;;;;;;0.10;0.10;;;;;;;;;;10443317;28;20047;-64
2021/10/04 10:52:43;;;;;;;0.10;0.10;;;;;;;;;;10436316;28;20098;-64
2021/10/04 10:57:59;;;;;;;0.00;0.00;;;;;;;;;;10437699;28;20056;-64
2021/10/04 11:03:05;;;;;;;0.10;0.10;;;;;;;;;;10443381;28;20480;-62
2021/10/04 11:08:10;;;;;;;0.05;0.05;;;;;;;;;;10437992;28;20406;-62
2021/10/04 11:13:22;;;;;;;0.00;0.00;;;;;;;;;;10441192;28;20499;-62
2021/10/04 11:18:26;;;;;;;0.00;0.00;;;;;;;;;;10440058;28;20053;-63
2021/10/04 11:23:30;;;;;;;0.10;0.10;;;;;;;;;;10442203;28;20055;-63
2021/10/04 11:28:40;;;;;;;0.03;0.03;;;;;;;;;;10441609;28;20051;-63
2021/10/04 11:33:47;;;;;;;0.10;0.10;;;;;;;;;;10442591;28;20087;-65
2021/10/04 11:38:55;;;;;;;0.10;0.10;;;;;;;;;;10444360;28;20041;-65
2021/10/04 11:43:58;;;;;;;0.00;0.00;;;;;;;;;;10444336;28;20865;-64
2021/10/04 11:49:02;;;;;;;0.10;0.10;;;;;;;;;;10441869;28;20036;-66
2021/10/04 11:54:06;;;;;;;0.10;0.10;;;;;;;;;;10440165;28;20045;-64
2021/10/04 11:59:09;;;;;;;0.00;0.00;;;;;;;;;;10439056;28;20055;-66
2021/10/04 12:04:13;;;;;;;0.00;0.00;;;;;;;;;;10438836;28;20052;-64
2021/10/04 12:09:18;;;;;;;0.10;0.10;;;;;;;;;;10436231;28;20056;-65
2021/10/04 12:14:21;;;;;;;0.10;0.10;;;;;;;;;;10440518;28;20037;-64
2021/10/04 12:19:25;;;;;;;0.03;0.03;;;;;;;;;;10441706;28;20398;-65
2021/10/04 12:24:32;;;;;;;0.00;0.00;;;;;;;;;;10439350;28;20513;-66
2021/10/04 12:29:37;;;;;;;0.10;0.10;;;;;;;;;;10438329;28;20040;-73
2021/10/04 12:34:40;;;;;;;0.00;0.00;;;;;;;;;;10437761;28;20045;-64
2021/10/04 12:39:44;;;;;;;0.10;0.10;;;;;;;;;;10441450;28;20044;-64
2021/10/04 12:44:47;;;;;;;0.10;0.10;;;;;;;;;;10440041;28;20037;-62
2021/10/04 12:49:54;;;;;;;0.10;0.10;;;;;;;;;;10445334;28;20407;-63
2021/10/04 12:54:58;;;;;;;0.13;0.13;;;;;;;;;;10442335;28;20141;-67
2021/10/04 13:00:01;;;;;;;0.00;0.00;;;;;;;;;;10435141;28;20898;-65
2021/10/04 13:05:07;;;;;;;0.10;0.10;;;;;;;;;;10440272;28;20049;-65
2021/10/04 13:10:11;;;;;;;0.00;0.00;;;;;;;;;;10434329;28;22005;-66
2021/10/04 13:15:13;;;;;;;0.10;0.10;;;;;;;;;;10434022;28;20041;-66
2021/10/04 13:20:16;;;;;;;0.10;0.10;;;;;;;;;;10440072;28;20130;-65
2021/10/04 13:25:21;;;;;;;0.10;0.10;;;;;;;;;;10437983;28;20055;-64
2021/10/04 13:30:24;;;;;;;0.00;0.00;;;;;;;;;;10435843;28;20048;-64
2021/10/04 13:35:29;;;;;;;0.00;0.00;;;;;;;;;;10434988;28;20136;-64
2021/10/04 13:40:33;;;;;;;0.10;0.10;;;;;;;;;;10429663;28;20305;-66
2021/10/04 13:45:36;;;;;;;0.10;0.10;;;;;;;;;;10438981;28;20053;-66
2021/10/04 13:50:39;;;;;;;0.03;0.03;;;;;;;;;;10438487;28;20041;-66
2021/10/04 13:55:43;;;;;;;0.10;0.10;;;;;;;;;;10434611;28;20486;-64
2021/10/04 14:00:48;;;;;;;0.00;0.00;;;;;;;;;;10433735;28;20033;-66
2021/10/04 14:05:53;;;;;;;0.00;0.00;;;;;;;;;;10434234;28;20047;-66
2021/10/04 14:10:57;;;;;;;0.00;0.00;;;;;;;;;;10430999;28;20049;-66
2021/10/04 14:16:00;;;;;;;0.00;0.00;;;;;;;;;;10434658;28;20830;-64
2021/10/04 14:21:03;;;;;;;0.00;0.00;;;;;;;;;;10428060;28;20135;-66
2021/10/04 14:26:07;;;;;;;0.00;0.00;;;;;;;;;;10431111;28;20036;-65
2021/10/04 14:31:26;;;;;;;0.10;0.10;;;;;;;;;;10428742;28;20107;-67
2021/10/04 14:36:30;;;;;;;0.00;0.00;;;;;;;;;;10431598;28;20064;-67
2021/10/04 14:41:35;;;;;;;0.00;0.00;;;;;;;;;;10432902;28;20037;-64
2021/10/04 14:46:38;;;;;;;0.00;0.00;;;;;;;;;;10437870;28;20044;-66
2021/10/04 14:51:41;;;;;;;0.05;0.05;;;;;;;;;;10440115;28;20039;-64
2021/10/04 14:56:45;;;;;;;0.00;0.00;;;;;;;;;;10432879;28;20037;-64
2021/10/04 15:01:48;;;;;;;0.10;0.10;;;;;;;;;;10430251;28;20395;-63
2021/10/04 15:06:51;;;;;;;0.05;0.05;;;;;;;;;;10430055;28;20162;-68
2021/10/04 15:11:55;;;;;;;0.00;0.00;;;;;;;;;;10432138;28;20043;-62
2021/10/04 15:16:58;;;;;;;0.00;0.00;;;;;;;;;;10435555;28;20131;-66
2021/10/04 15:22:01;;;;;;;0.00;0.00;;;;;;;;;;10429349;28;20051;-64
2021/10/04 15:27:05;;;;;;;0.10;0.10;;;;;;;;;;10432834;28;20041;-65
2021/10/04 15:32:08;;;;;;;0.10;0.10;;;;;;;;;;10431143;28;20554;-65
2021/10/04 15:37:11;;;;;;;0.00;0.00;;;;;;;;;;10431019;28;20043;-66
2021/10/04 15:42:19;;;;;;;0.10;0.10;;;;;;;;;;10426417;28;20743;-66
2021/10/04 15:47:23;;;;;;;0.10;0.10;;;;;;;;;;10439830;28;20049;-67
2021/10/04 15:52:28;;;;;;;0.10;0.10;;;;;;;;;;10440540;28;20095;-65
2021/10/04 15:57:33;;;;;;;0.10;0.10;;;;;;;;;;10447417;28;20044;-64
2021/10/04 16:02:37;;;;;;;0.00;0.00;;;;;;;;;;10444221;28;20048;-63
2021/10/04 16:07:43;;;;;;;0.10;0.10;;;;;;;;;;10441858;28;20555;-63
2021/10/04 16:12:50;;;;;;;0.00;0.00;;;;;;;;;;10444397;28;20049;-63
2021/10/04 16:17:54;;;;;;;0.00;0.00;;;;;;;;;;10440323;28;20526;-62
2021/10/04 16:22:57;;;;;;;0.00;0.00;;;;;;;;;;10438149;28;20718;-64
2021/10/04 16:28:06;;;;;;;0.00;0.00;;;;;;;;;;10439985;28;20040;-66
2021/10/04 16:33:14;;;;;;;0.10;0.10;;;;;;;;;;10436866;28;20087;-64
2021/10/04 16:38:19;;;;;;;0.00;0.00;;;;;;;;;;10437654;28;20041;-64
2021/10/04 16:43:23;;;;;;;0.00;0.00;;;;;;;;;;10437644;28;20036;-64
2021/10/04 16:48:26;;;;;;;0.00;0.00;;;;;;;;;;10439021;28;20033;-65
2021/10/04 16:53:28;;;;;;;0.10;0.10;;;;;;;;;;10434494;28;20462;-65
2021/10/04 16:58:33;;;;;;;0.00;0.00;;;;;;;;;;10433902;28;20037;-63
2021/10/04 17:03:36;;;;;;;0.10;0.10;;;;;;;;;;10439687;28;20049;-67
2021/10/04 17:08:39;;;;;;;0.10;0.10;;;;;;;;;;10441475;28;20045;-67
2021/10/04 17:13:44;;;;;;;0.40;0.10;;;;;;;;;;10439603;28;20044;-68
2021/10/04 17:18:50;;;;;;;0.10;0.10;;;;;;;;;;10440698;28;20059;-67
2021/10/04 17:23:53;;;;;;;0.10;0.10;;;;;;;;;;10432401;28;20041;-64
2021/10/04 17:28:59;;;;;;;0.00;0.00;;;;;;;;;;10439260;28;20698;-67
2021/10/04 17:34:02;;;;;;;0.10;0.10;;;;;;;;;;10441219;28;20052;-65
2021/10/04 17:39:06;;;;;;;0.00;0.00;;;;;;;;;;10434501;28;20090;-65
2021/10/04 17:44:10;;;;;;;0.10;0.10;;;;;;;;;;10437415;28;20057;-66
2021/10/04 17:49:13;;;;;;;0.10;0.10;;;;;;;;;;10434189;28;20053;-64
2021/10/04 17:54:17;;;;;;;0.10;0.10;;;;;;;;;;10436541;28;20048;-65
2021/10/04 17:59:24;;;;;;;0.10;0.10;;;;;;;;;;10434337;28;20056;-65
2021/10/04 18:04:27;;;;;;;0.10;0.10;;;;;;;;;;10433535;28;20051;-62
2021/10/04 18:09:32;;;;;;;0.10;0.10;;;;;;;;;;10429757;28;20045;-64
2021/10/04 18:14:39;;;;;;;0.00;0.00;;;;;;;;;;10430069;28;20053;-66
2021/10/04 18:19:42;;;;;;;0.10;0.10;;;;;;;;;;10432202;28;20132;-67
2021/10/04 18:24:45;;;;;;;0.00;0.00;;;;;;;;;;10431823;28;20048;-66
2021/10/04 18:29:55;;;;;;;0.00;0.00;;;;;;;;;;10437462;28;20041;-67
2021/10/04 18:34:58;;;;;;;0.10;0.10;;;;;;;;;;10439316;28;20044;-65
2021/10/04 18:40:07;;;;;;;0.10;0.10;;;;;;;;;;10441520;28;20490;-66
2021/10/04 18:45:12;;;;;;;0.00;0.00;;;;;;;;;;10437025;28;20048;-65
2021/10/04 18:50:23;;;;;;;0.10;0.10;;;;;;;;;;10438222;28;20064;-67
2021/10/04 18:55:26;;;;;;;0.10;0.10;;;;;;;;;;10446335;28;20050;-66
2021/10/04 19:00:30;;;;;;;0.00;0.00;;;;;;;;;;10446308;28;20037;-64
2021/10/04 19:05:33;;;;;;;0.10;0.10;;;;;;;;;;10441507;28;20119;-68
2021/10/04 19:10:36;;;;;;;0.10;0.10;;;;;;;;;;10436784;28;21224;-66
2021/10/04 19:15:40;;;;;;;0.10;0.10;;;;;;;;;;10455446;28;20686;-64
2021/10/04 19:20:44;;;;;;;0.10;0.10;;;;;;;;;;10450596;28;20040;-67
2021/10/04 19:25:50;;;;;;;0.10;0.10;;;;;;;;;;10443447;28;20558;-66
2021/10/04 19:30:55;;;;;;;0.05;0.05;;;;;;;;;;10449848;28;20402;-65
2021/10/04 19:35:58;;;;;;;0.10;0.10;;;;;;;;;;10437124;28;20495;-65
2021/10/04 19:41:03;;;;;;;0.03;0.03;;;;;;;;;;10440370;28;20051;-65
2021/10/04 19:46:07;;;;;;;0.10;0.10;;;;;;;;;;10439304;28;20052;-65
2021/10/04 19:51:11;;;;;;;0.10;0.10;;;;;;;;;;10435769;28;20052;-66
2021/10/04 19:56:16;;;;;;;0.10;0.10;;;;;;;;;;10436419;28;20047;-65
2021/10/04 20:01:24;;;;;;;0.00;0.00;;;;;;;;;;10437137;28;20045;-67
2021/10/04 20:06:27;;;;;;;0.10;0.10;;;;;;;;;;10436305;28;20214;-64
2021/10/04 20:11:31;;;;;;;0.10;0.10;;;;;;;;;;10434679;28;20049;-64
2021/10/04 20:16:35;;;;;;;0.10;0.10;;;;;;;;;;10433721;28;20088;-66
2021/10/04 20:21:40;;;;;;;0.20;0.10;;;;;;;;;;10431573;28;20049;-63
2021/10/04 20:26:43;;;;;;;0.10;0.10;;;;;;;;;;10433959;28;20056;-64
2021/10/04 20:31:48;;;;;;;0.10;0.10;;;;;;;;;;10435937;28;20570;-65
2021/10/04 20:36:51;;;;;;;0.10;0.10;;;;;;;;;;10434422;28;20045;-64
2021/10/04 20:41:54;;;;;;;0.10;0.10;;;;;;;;;;10433689;28;20593;-64
2021/10/04 20:46:58;;;;;;;0.10;0.10;;;;;;;;;;10433786;28;20804;-66
2021/10/04 20:52:01;;;;;;;0.10;0.10;;;;;;;;;;10431439;28;20840;-66
2021/10/04 20:57:04;;;;;;;0.00;0.00;;;;;;;;;;10434252;28;20055;-67
2021/10/04 21:02:08;;;;;;;0.10;0.10;;;;;;;;;;10433811;28;20041;-65
2021/10/04 21:07:14;;;;;;;0.10;0.10;;;;;;;;;;10432744;28;20118;-65
2021/10/04 21:12:18;;;;;;;0.10;0.10;;;;;;;;;;10432915;28;20048;-65
2021/10/04 21:17:22;;;;;;;0.10;0.10;;;;;;;;;;10432898;28;20040;-65
2021/10/04 21:22:25;;;;;;;0.10;0.10;;;;;;;;;;10434485;28;20139;-65
2021/10/04 21:27:28;;;;;;;0.10;0.10;;;;;;;;;;10431109;28;20140;-66
2021/10/04 21:32:32;;;;;;;0.10;0.10;;;;;;;;;;10435174;28;20035;-64
2021/10/04 21:37:35;;;;;;;0.00;0.00;;;;;;;;;;10431890;28;20049;-64
2021/10/04 21:42:38;;;;;;;0.10;0.10;;;;;;;;;;10433901;28;20033;-66
2021/10/04 21:47:42;;;;;;;0.10;0.10;;;;;;;;;;10432709;28;20053;-66
2021/10/04 21:52:44;;;;;;;0.03;0.03;;;;;;;;;;10431564;28;20059;-66
2021/10/04 21:57:49;;;;;;;0.10;0.10;;;;;;;;;;10427936;28;20057;-66
2021/10/04 22:03:05;;;;;;;0.10;0.10;;;;;;;;;;10432738;28;20059;-65
2021/10/04 22:13:28;;;;;;;0.00;0.00;;;;;;;;;;10432085;28;20056;-65
2021/10/04 22:18:34;;;;;;;0.10;0.10;;;;;;;;;;10431622;28;20871;-65
2021/10/04 22:23:39;;;;;;;0.10;0.10;;;;;;;;;;10432708;28;20391;-66
2021/10/04 22:28:42;;;;;;;0.10;0.10;;;;;;;;;;10432194;28;20048;-65
2021/10/04 22:33:49;;;;;;;0.10;0.10;;;;;;;;;;10429811;28;20037;-65
2021/10/04 22:38:52;;;;;;;0.10;0.10;;;;;;;;;;10431597;28;20045;-65
2021/10/04 22:43:55;;;;;;;0.00;0.00;;;;;;;;;;10431198;28;20112;-66
2021/10/04 22:48:59;;;;;;;0.10;0.10;;;;;;;;;;10431120;28;20048;-66
2021/10/04 22:54:02;;;;;;;0.10;0.10;;;;;;;;;;10433959;28;20063;-66
2021/10/04 22:59:04;;;;;;;0.15;0.10;;;;;;;;;;10440301;28;20045;-66
2021/10/04 23:04:09;;;;;;;0.00;0.00;;;;;;;;;;10436975;28;20064;-66
2021/10/04 23:09:14;;;;;;;0.10;0.10;;;;;;;;;;10440506;28;20056;-66
2021/10/04 23:14:16;;;;;;;1.02;0.10;;;;;;;;;;10440536;28;20072;-66
2021/10/04 23:19:20;;;;;;;0.70;0.10;;;;;;;;;;10440670;28;20471;-66
2021/10/04 23:24:23;;;;;;;0.30;0.10;;;;;;;;;;10438340;28;20092;-66
2021/10/04 23:29:26;;;;;;;0.10;0.10;;;;;;;;;;10439544;28;20044;-66
2021/10/04 23:34:30;;;;;;;0.30;0.10;;;;;;;;;;10438048;28;20068;-66
2021/10/04 23:39:33;;;;;;;0.08;0.08;;;;;;;;;;10438096;28;20045;-66
2021/10/04 23:44:36;;;;;;;0.10;0.10;;;;;;;;;;10438262;28;20062;-66
2021/10/04 23:49:40;;;;;;;0.10;0.10;;;;;;;;;;10436825;28;20044;-66
2021/10/04 23:54:42;;;;;;;0.10;0.10;;;;;;;;;;10436238;28;20067;-66
2021/10/04 23:59:45;;;;;;;0.10;0.10;;;;;;;;;;10439897;28;20427;-66
